Wetterdaten: Woche 21.05.07 - 27.05.07 (KW21)
Datum Zeit Temperatur Luftfeuchte Luftdruck Niederschlag Wind Richtung Sonnenschein Solar Taupunkt Windchill Windben
21.05.2007 00:00 20.1 C 68 % 1013.5 hPa 0.0 l/m 5.8 km/h (1 Bft) S-SO 0.00 h 0 W/m 13.9 C 20.1 C 10.7 km/h (2 Bft)
21.05.2007 01:00 18.7 C 72 % 1013.4 hPa 0.0 l/m 3.6 km/h (1 Bft) S-SO 0.00 h 0 W/m 13.5 C 18.7 C 6.6 km/h (2 Bft)
21.05.2007 02:00 17.6 C 78 % 1013.1 hPa 0.0 l/m 0.9 km/h (0 Bft) S-SO 0.00 h 0 W/m 13.8 C 17.6 C 2.7 km/h (1 Bft)
21.05.2007 03:00 16.8 C 83 % 1013.3 hPa 0.0 l/m 1.3 km/h (1 Bft) O-SO 0.00 h 0 W/m 13.8 C 16.8 C 2.4 km/h (1 Bft)
21.05.2007 04:00 16.1 C 86 % 1013.3 hPa 0.0 l/m 0.9 km/h (0 Bft) O 0.00 h 0 W/m 13.7 C 16.1 C 1.8 km/h (1 Bft)
21.05.2007 05:00 15.2 C 90 % 1013.5 hPa 0.0 l/m 3.6 km/h (1 Bft) O-SO 0.07 h 10 W/m 13.6 C 15.2 C 4.9 km/h (1 Bft)
21.05.2007 06:00 14.8 C 92 % 1013.8 hPa 0.0 l/m 1.2 km/h (1 Bft) O-SO 0.00 h 43 W/m 13.6 C 14.8 C 1.7 km/h (1 Bft)
21.05.2007 07:00 16.1 C 88 % 1014.2 hPa 0.0 l/m 0.5 km/h (0 Bft) O-SO 0.63 h 171 W/m 14.1 C 16.1 C 1.8 km/h (1 Bft)
21.05.2007 08:00 18.4 C 82 % 1014.3 hPa 0.0 l/m 1.1 km/h (0 Bft) O-SO 1.00 h 342 W/m 15.3 C 18.4 C 2.7 km/h (1 Bft)
21.05.2007 09:00 20.5 C 74 % 1014.6 hPa 0.0 l/m 1.5 km/h (1 Bft) SO 1.00 h 501 W/m 15.7 C 20.5 C 3.2 km/h (1 Bft)
21.05.2007 10:00 22.2 C 67 % 1014.7 hPa 0.0 l/m 2.1 km/h (1 Bft) W-NW 1.00 h 642 W/m 15.7 C 22.2 C 3.7 km/h (1 Bft)
21.05.2007 11:00 24.3 C 61 % 1014.5 hPa 0.0 l/m 2.3 km/h (1 Bft) W 1.00 h 753 W/m 16.2 C 24.3 C 4.3 km/h (1 Bft)
21.05.2007 12:00 25.9 C 56 % 1014.3 hPa 0.0 l/m 2.6 km/h (1 Bft) W 1.00 h 819 W/m 16.5 C 25.9 C 4.7 km/h (1 Bft)
21.05.2007 13:00 27.4 C 53 % 1013.9 hPa 0.0 l/m 2.8 km/h (1 Bft) W-SW 1.00 h 846 W/m 16.8 C 27.4 C 5.1 km/h (1 Bft)
21.05.2007 14:00 28.6 C 47 % 1013.4 hPa 0.0 l/m 3.8 km/h (1 Bft) W-NW 1.00 h 835 W/m 16.2 C 28.6 C 6.1 km/h (2 Bft)
21.05.2007 15:00 29.3 C 43 % 1013.3 hPa 0.0 l/m 4.1 km/h (1 Bft) W-NW 1.00 h 786 W/m 15.2 C 29.3 C 7.0 km/h (2 Bft)
21.05.2007 16:00 29.5 C 41 % 1013.0 hPa 0.0 l/m 6.8 km/h (2 Bft) N-NW 1.00 h 640 W/m 15.0 C 29.5 C 11.1 km/h (2 Bft)
21.05.2007 17:00 29.3 C 42 % 1013.2 hPa 0.0 l/m 3.9 km/h (1 Bft) N-NW 1.00 h 502 W/m 14.9 C 29.3 C 6.5 km/h (2 Bft)
21.05.2007 18:00 26.9 C 46 % 1013.8 hPa 0.0 l/m 3.2 km/h (1 Bft) O 0.08 h 108 W/m 14.1 C 26.9 C 5.8 km/h (2 Bft)
21.05.2007 19:00 23.1 C 54 % 1015.0 hPa 0.0 l/m 11.2 km/h (2 Bft) W 0.00 h 21 W/m 13.1 C 23.1 C 18.4 km/h (3 Bft)
21.05.2007 20:00 21.6 C 59 % 1016.0 hPa 0.0 l/m 7.0 km/h (2 Bft) W-NW 0.00 h 6 W/m 13.3 C 21.6 C 11.4 km/h (2 Bft)
21.05.2007 21:00 19.5 C 74 % 1016.7 hPa 0.2 l/m 1.9 km/h (1 Bft) S-SO 0.00 h 0 W/m 14.7 C 19.5 C 3.5 km/h (1 Bft)
21.05.2007 22:00 18.1 C 80 % 1017.0 hPa 0.0 l/m 2.9 km/h (1 Bft) O-SO 0.00 h 0 W/m 14.7 C 18.1 C 4.4 km/h (1 Bft)
21.05.2007 23:00 17.8 C 86 % 1017.7 hPa 0.0 l/m 3.9 km/h (1 Bft) S-SO 0.00 h 0 W/m 15.4 C 17.8 C 7.0 km/h (2 Bft)
22.05.2007 00:00 17.7 C 85 % 1017.7 hPa 0.0 l/m 3.1 km/h (1 Bft) SO 0.00 h 0 W/m 15.2 C 17.7 C 5.3 km/h (1 Bft)
22.05.2007 01:00 17.3 C 87 % 1017.4 hPa 0.0 l/m 0.0 km/h (0 Bft) O-SO 0.00 h 0 W/m 15.1 C 17.3 C 0.3 km/h (0 Bft)
22.05.2007 02:00 17.0 C 89 % 1017.1 hPa 0.0 l/m 0.1 km/h (0 Bft) O-SO 0.00 h 0 W/m 15.2 C 17.0 C 0.3 km/h (0 Bft)
22.05.2007 03:00 16.7 C 91 % 1017.2 hPa 0.0 l/m 0.1 km/h (0 Bft) O-SO 0.00 h 0 W/m 15.2 C 16.7 C 0.2 km/h (0 Bft)
22.05.2007 04:00 16.4 C 93 % 1017.7 hPa 0.0 l/m 0.0 km/h (0 Bft) N 0.00 h 0 W/m 15.4 C 16.4 C 0.0 km/h (0 Bft)
22.05.2007 05:00 16.3 C 96 % 1017.8 hPa 3.2 l/m 0.0 km/h (0 Bft) N 0.00 h 5 W/m 15.6 C 16.3 C 0.1 km/h (0 Bft)
22.05.2007 06:00 16.1 C 98 % 1018.5 hPa 1.6 l/m 0.5 km/h (0 Bft) NO 0.00 h 5 W/m 15.8 C 16.1 C 1.7 km/h (1 Bft)
22.05.2007 07:00 15.7 C 99 % 1019.3 hPa 0.4 l/m 1.7 km/h (1 Bft) O-SO 0.00 h 45 W/m 15.5 C 15.7 C 2.7 km/h (1 Bft)
22.05.2007 08:00 16.6 C 98 % 1019.7 hPa 0.0 l/m 0.7 km/h (0 Bft) O-SO 0.00 h 119 W/m 16.2 C 16.6 C 1.6 km/h (1 Bft)
22.05.2007 09:00 17.9 C 95 % 1020.0 hPa 0.0 l/m 0.7 km/h (0 Bft) S 0.27 h 278 W/m 17.0 C 17.9 C 2.1 km/h (1 Bft)
22.05.2007 10:00 19.8 C 86 % 1020.0 hPa 0.0 l/m 0.9 km/h (0 Bft) SO 0.62 h 545 W/m 17.3 C 19.8 C 2.1 km/h (1 Bft)
22.05.2007 11:00 21.3 C 77 % 1019.7 hPa 0.0 l/m 1.3 km/h (1 Bft) W-NW 0.98 h 739 W/m 17.1 C 21.3 C 2.9 km/h (1 Bft)
22.05.2007 12:00 22.9 C 68 % 1019.2 hPa 0.0 l/m 4.0 km/h (1 Bft) O-SO 1.00 h 825 W/m 16.6 C 22.9 C 7.5 km/h (2 Bft)
22.05.2007 13:00 24.1 C 60 % 1018.7 hPa 0.0 l/m 5.0 km/h (1 Bft) O-SO 1.00 h 834 W/m 15.8 C 24.1 C 8.7 km/h (2 Bft)
22.05.2007 14:00 25.1 C 56 % 1018.4 hPa 0.0 l/m 4.7 km/h (1 Bft) O-SO 1.00 h 811 W/m 15.5 C 25.1 C 7.9 km/h (2 Bft)
22.05.2007 15:00 25.8 C 52 % 1017.7 hPa 0.0 l/m 4.5 km/h (1 Bft) O-SO 1.00 h 735 W/m 15.2 C 25.8 C 7.5 km/h (2 Bft)
22.05.2007 16:00 25.8 C 51 % 1017.0 hPa 0.0 l/m 4.9 km/h (1 Bft) O-SO 1.00 h 614 W/m 14.8 C 25.8 C 7.6 km/h (2 Bft)
22.05.2007 17:00 25.7 C 50 % 1016.5 hPa 0.0 l/m 4.1 km/h (1 Bft) O-SO 1.00 h 471 W/m 14.5 C 25.7 C 6.3 km/h (2 Bft)
22.05.2007 18:00 25.4 C 51 % 1016.4 hPa 0.0 l/m 4.0 km/h (1 Bft) O-SO 1.00 h 309 W/m 14.4 C 25.4 C 6.0 km/h (2 Bft)
22.05.2007 19:00 24.7 C 55 % 1016.1 hPa 0.0 l/m 3.1 km/h (1 Bft) O-SO 0.65 h 150 W/m 15.0 C 24.7 C 4.5 km/h (1 Bft)
22.05.2007 20:00 22.6 C 64 % 1016.5 hPa 0.0 l/m 2.1 km/h (1 Bft) O-SO 0.00 h 28 W/m 15.3 C 22.6 C 2.7 km/h (1 Bft)
22.05.2007 21:00 20.2 C 74 % 1017.1 hPa 0.0 l/m 1.4 km/h (1 Bft) O-SO 0.00 h 5 W/m 15.4 C 20.2 C 2.3 km/h (1 Bft)
22.05.2007 22:00 18.4 C 82 % 1017.6 hPa 0.0 l/m 1.9 km/h (1 Bft) O 0.00 h 0 W/m 15.2 C 18.4 C 3.1 km/h (1 Bft)
22.05.2007 23:00 17.3 C 85 % 1017.7 hPa 0.0 l/m 1.5 km/h (1 Bft) O-SO 0.00 h 0 W/m 14.8 C 17.3 C 2.5 km/h (1 Bft)
23.05.2007 00:00 16.7 C 88 % 1017.6 hPa 0.0 l/m 0.6 km/h (0 Bft) O-SO 0.00 h 0 W/m 14.6 C 16.7 C 1.8 km/h (1 Bft)
23.05.2007 01:00 16.1 C 90 % 1017.5 hPa 0.0 l/m 0.6 km/h (0 Bft) O 0.00 h 0 W/m 14.4 C 16.1 C 1.3 km/h (1 Bft)
23.05.2007 02:00 15.4 C 92 % 1017.4 hPa 0.0 l/m 0.3 km/h (0 Bft) O 0.00 h 0 W/m 14.0 C 15.4 C 1.1 km/h (0 Bft)
23.05.2007 03:00 14.8 C 93 % 1017.5 hPa 0.0 l/m 0.2 km/h (0 Bft) O 0.00 h 0 W/m 13.7 C 14.8 C 0.9 km/h (0 Bft)
23.05.2007 04:00 14.3 C 94 % 1017.5 hPa 0.0 l/m 1.1 km/h (0 Bft) O 0.00 h 0 W/m 13.4 C 14.3 C 2.0 km/h (1 Bft)
23.05.2007 05:00 13.9 C 95 % 1017.6 hPa 0.0 l/m 2.5 km/h (1 Bft) O-SO 0.03 h 9 W/m 13.1 C 13.9 C 3.5 km/h (1 Bft)
23.05.2007 06:00 13.9 C 96 % 1017.6 hPa 0.0 l/m 0.0 km/h (0 Bft) O-SO 0.00 h 30 W/m 13.2 C 13.9 C 0.4 km/h (0 Bft)
23.05.2007 07:00 15.2 C 91 % 1017.7 hPa 0.0 l/m 0.1 km/h (0 Bft) O 0.53 h 164 W/m 13.8 C 15.2 C 0.5 km/h (0 Bft)
23.05.2007 08:00 17.3 C 82 % 1017.9 hPa 0.0 l/m 1.1 km/h (1 Bft) N-NW 1.00 h 333 W/m 14.3 C 17.3 C 2.7 km/h (1 Bft)
23.05.2007 09:00 19.8 C 74 % 1017.8 hPa 0.0 l/m 1.9 km/h (1 Bft) W-NW 1.00 h 498 W/m 15.0 C 19.8 C 3.7 km/h (1 Bft)
23.05.2007 10:00 22.0 C 68 % 1017.5 hPa 0.0 l/m 2.6 km/h (1 Bft) W-NW 1.00 h 640 W/m 15.8 C 22.0 C 4.3 km/h (1 Bft)
23.05.2007 11:00 24.2 C 62 % 1016.9 hPa 0.0 l/m 3.4 km/h (1 Bft) O-SO 1.00 h 744 W/m 16.6 C 24.2 C 5.7 km/h (1 Bft)
23.05.2007 12:00 25.6 C 56 % 1016.6 hPa 0.0 l/m 5.8 km/h (2 Bft) O-SO 1.00 h 816 W/m 16.1 C 25.6 C 9.7 km/h (2 Bft)
23.05.2007 13:00 26.2 C 53 % 1016.1 hPa 0.0 l/m 8.2 km/h (2 Bft) O-SO 1.00 h 842 W/m 15.9 C 26.2 C 12.6 km/h (3 Bft)
23.05.2007 14:00 27.0 C 49 % 1015.4 hPa 0.0 l/m 5.7 km/h (1 Bft) O-SO 1.00 h 814 W/m 15.2 C 27.0 C 8.6 km/h (2 Bft)
23.05.2007 15:00 27.6 C 47 % 1014.7 hPa 0.0 l/m 6.6 km/h (2 Bft) O-SO 1.00 h 740 W/m 15.2 C 27.6 C 10.6 km/h (2 Bft)
23.05.2007 16:00 27.8 C 43 % 1014.2 hPa 0.0 l/m 6.6 km/h (2 Bft) O-SO 1.00 h 627 W/m 13.9 C 27.8 C 11.0 km/h (2 Bft)
23.05.2007 17:00 27.6 C 41 % 1014.0 hPa 0.0 l/m 7.8 km/h (2 Bft) O-SO 0.95 h 470 W/m 13.3 C 27.6 C 11.9 km/h (2 Bft)
23.05.2007 18:00 26.6 C 45 % 1013.9 hPa 0.0 l/m 2.8 km/h (1 Bft) O 0.22 h 154 W/m 13.5 C 26.6 C 5.2 km/h (1 Bft)
23.05.2007 19:00 26.4 C 48 % 1013.7 hPa 0.0 l/m 1.1 km/h (1 Bft) O 0.62 h 143 W/m 14.3 C 26.4 C 2.9 km/h (1 Bft)
23.05.2007 20:00 24.8 C 52 % 1014.1 hPa 0.0 l/m 0.7 km/h (0 Bft) O 0.12 h 29 W/m 14.4 C 24.8 C 2.0 km/h (1 Bft)
23.05.2007 21:00 22.6 C 62 % 1014.5 hPa 0.0 l/m 2.3 km/h (1 Bft) O-SO 0.00 h 8 W/m 15.0 C 22.6 C 4.0 km/h (1 Bft)
23.05.2007 22:00 20.7 C 70 % 1015.1 hPa 0.0 l/m 3.8 km/h (1 Bft) O-SO 0.00 h 0 W/m 15.0 C 20.7 C 5.4 km/h (1 Bft)
23.05.2007 23:00 19.7 C 72 % 1015.1 hPa 0.0 l/m 2.4 km/h (1 Bft) O-SO 0.00 h 0 W/m 14.6 C 19.7 C 3.4 km/h (1 Bft)
24.05.2007 00:00 18.1 C 80 % 1014.9 hPa 0.0 l/m 1.1 km/h (0 Bft) O-SO 0.00 h 0 W/m 14.7 C 18.1 C 1.8 km/h (1 Bft)
24.05.2007 01:00 17.6 C 82 % 1015.0 hPa 0.0 l/m 3.0 km/h (1 Bft) O-SO 0.00 h 0 W/m 14.4 C 17.6 C 4.6 km/h (1 Bft)
24.05.2007 02:00 16.6 C 86 % 1014.6 hPa 0.0 l/m 1.0 km/h (0 Bft) O 0.00 h 0 W/m 14.2 C 16.6 C 1.8 km/h (1 Bft)
24.05.2007 03:00 15.5 C 90 % 1014.5 hPa 0.0 l/m 2.6 km/h (1 Bft) O-SO 0.00 h 0 W/m 13.8 C 15.5 C 3.9 km/h (1 Bft)
24.05.2007 04:00 14.9 C 92 % 1014.2 hPa 0.0 l/m 2.0 km/h (1 Bft) SO 0.00 h 0 W/m 13.6 C 14.9 C 3.4 km/h (1 Bft)
24.05.2007 05:00 14.4 C 93 % 1014.4 hPa 0.0 l/m 1.7 km/h (1 Bft) SO 0.02 h 8 W/m 13.4 C 14.4 C 2.8 km/h (1 Bft)
24.05.2007 06:00 14.7 C 94 % 1014.7 hPa 0.0 l/m 0.4 km/h (0 Bft) O 0.00 h 31 W/m 13.7 C 14.7 C 1.0 km/h (0 Bft)
24.05.2007 07:00 16.1 C 90 % 1014.8 hPa 0.0 l/m 0.2 km/h (0 Bft) S 0.53 h 166 W/m 14.6 C 16.1 C 0.7 km/h (0 Bft)
24.05.2007 08:00 18.6 C 81 % 1014.8 hPa 0.0 l/m 1.7 km/h (1 Bft) S-SO 1.00 h 331 W/m 15.3 C 18.6 C 3.3 km/h (1 Bft)
24.05.2007 09:00 20.7 C 74 % 1014.8 hPa 0.0 l/m 1.3 km/h (1 Bft) S-SO 1.00 h 491 W/m 16.0 C 20.7 C 3.0 km/h (1 Bft)
24.05.2007 10:00 22.4 C 70 % 1014.6 hPa 0.0 l/m 1.8 km/h (1 Bft) SO 1.00 h 632 W/m 16.6 C 22.4 C 3.6 km/h (1 Bft)
24.05.2007 11:00 24.0 C 64 % 1014.4 hPa 0.0 l/m 2.4 km/h (1 Bft) S-SO 1.00 h 742 W/m 16.7 C 24.0 C 4.8 km/h (1 Bft)
24.05.2007 12:00 25.4 C 57 % 1013.9 hPa 0.0 l/m 2.1 km/h (1 Bft) O-SO 1.00 h 815 W/m 16.1 C 25.4 C 3.9 km/h (1 Bft)
24.05.2007 13:00 26.6 C 51 % 1013.4 hPa 0.0 l/m 2.9 km/h (1 Bft) O-SO 1.00 h 835 W/m 15.5 C 26.6 C 5.0 km/h (1 Bft)
24.05.2007 14:00 28.1 C 45 % 1012.6 hPa 0.0 l/m 3.2 km/h (1 Bft) W-NW 1.00 h 804 W/m 14.9 C 28.1 C 5.3 km/h (1 Bft)
24.05.2007 15:00 28.4 C 43 % 1012.1 hPa 0.0 l/m 2.3 km/h (1 Bft) O-SO 1.00 h 730 W/m 14.6 C 28.4 C 4.2 km/h (1 Bft)
24.05.2007 16:00 29.5 C 44 % 1011.2 hPa 0.0 l/m 2.5 km/h (1 Bft) W 1.00 h 619 W/m 15.7 C 29.5 C 4.4 km/h (1 Bft)
24.05.2007 17:00 29.3 C 42 % 1010.8 hPa 0.0 l/m 2.3 km/h (1 Bft) O-SO 1.00 h 470 W/m 14.9 C 29.3 C 3.9 km/h (1 Bft)
24.05.2007 18:00 29.3 C 44 % 1010.6 hPa 0.0 l/m 3.0 km/h (1 Bft) W 0.90 h 285 W/m 15.7 C 29.3 C 4.8 km/h (1 Bft)
24.05.2007 19:00 25.8 C 52 % 1010.7 hPa 0.0 l/m 6.2 km/h (2 Bft) W 0.00 h 23 W/m 15.1 C 25.8 C 10.0 km/h (2 Bft)
24.05.2007 20:00 23.6 C 61 % 1010.8 hPa 0.0 l/m 2.6 km/h (1 Bft) W 0.00 h 11 W/m 15.7 C 23.6 C 4.4 km/h (1 Bft)
24.05.2007 21:00 21.8 C 70 % 1011.3 hPa 0.0 l/m 1.0 km/h (0 Bft) O-SO 0.00 h 5 W/m 16.2 C 21.8 C 2.0 km/h (1 Bft)
24.05.2007 22:00 20.3 C 78 % 1011.9 hPa 0.0 l/m 0.2 km/h (0 Bft) O-SO 0.00 h 0 W/m 16.4 C 20.3 C 1.0 km/h (0 Bft)
24.05.2007 23:00 19.5 C 80 % 1011.8 hPa 0.0 l/m 1.7 km/h (1 Bft) O-SO 0.00 h 0 W/m 15.9 C 19.5 C 3.0 km/h (1 Bft)
25.05.2007 00:00 20.5 C 68 % 1011.8 hPa 0.0 l/m 3.1 km/h (1 Bft) O-SO 0.00 h 0 W/m 14.4 C 20.5 C 5.0 km/h (1 Bft)
25.05.2007 01:00 20.0 C 67 % 1011.6 hPa 0.0 l/m 0.6 km/h (0 Bft) O-SO 0.00 h 0 W/m 13.8 C 20.0 C 1.6 km/h (1 Bft)
25.05.2007 02:00 18.4 C 74 % 1011.3 hPa 0.0 l/m 0.4 km/h (0 Bft) O-SO 0.00 h 0 W/m 13.7 C 18.4 C 1.2 km/h (1 Bft)
25.05.2007 03:00 17.3 C 82 % 1011.0 hPa 0.0 l/m 2.9 km/h (1 Bft) O-SO 0.00 h 0 W/m 14.2 C 17.3 C 4.1 km/h (1 Bft)
25.05.2007 04:00 16.4 C 82 % 1010.6 hPa 0.0 l/m 0.8 km/h (0 Bft) O-SO 0.00 h 0 W/m 13.3 C 16.4 C 1.7 km/h (1 Bft)
25.05.2007 05:00 15.7 C 85 % 1010.6 hPa 0.0 l/m 1.6 km/h (1 Bft) O-SO 0.00 h 8 W/m 13.1 C 15.7 C 2.5 km/h (1 Bft)
25.05.2007 06:00 15.9 C 87 % 1010.8 hPa 0.0 l/m 0.1 km/h (0 Bft) O-SO 0.00 h 23 W/m 13.7 C 15.9 C 0.2 km/h (0 Bft)
25.05.2007 07:00 16.4 C 88 % 1010.8 hPa 0.0 l/m 0.0 km/h (0 Bft) O-SO 0.00 h 87 W/m 14.5 C 16.4 C 0.1 km/h (0 Bft)
25.05.2007 08:00 17.6 C 86 % 1010.9 hPa 0.0 l/m 0.3 km/h (0 Bft) O-SO 0.00 h 148 W/m 15.1 C 17.6 C 1.1 km/h (1 Bft)
25.05.2007 09:00 19.0 C 81 % 1011.0 hPa 0.0 l/m 0.3 km/h (0 Bft) O 0.05 h 296 W/m 15.8 C 19.0 C 1.1 km/h (0 Bft)
25.05.2007 10:00 22.1 C 70 % 1010.5 hPa 0.0 l/m 1.5 km/h (1 Bft) N 1.00 h 610 W/m 16.4 C 22.1 C 3.1 km/h (1 Bft)
25.05.2007 11:00 24.8 C 59 % 1009.8 hPa 0.0 l/m 1.7 km/h (1 Bft) S 0.95 h 735 W/m 16.3 C 24.8 C 3.8 km/h (1 Bft)
25.05.2007 12:00 26.1 C 55 % 1009.0 hPa 0.0 l/m 2.7 km/h (1 Bft) SO 0.95 h 715 W/m 16.1 C 26.1 C 5.1 km/h (1 Bft)
25.05.2007 13:00 27.5 C 50 % 1008.2 hPa 0.0 l/m 1.8 km/h (1 Bft) SW 1.00 h 737 W/m 16.1 C 27.5 C 3.9 km/h (1 Bft)
25.05.2007 14:00 28.3 C 44 % 1007.5 hPa 0.0 l/m 2.1 km/h (1 Bft) O-SO 1.00 h 760 W/m 14.9 C 28.3 C 3.9 km/h (1 Bft)
25.05.2007 15:00 28.7 C 42 % 1006.8 hPa 0.0 l/m 2.9 km/h (1 Bft) O-SO 0.97 h 670 W/m 14.4 C 28.7 C 5.0 km/h (1 Bft)
25.05.2007 16:00 29.0 C 40 % 1006.4 hPa 0.0 l/m 2.9 km/h (1 Bft) W 0.58 h 476 W/m 14.0 C 29.0 C 5.5 km/h (1 Bft)
25.05.2007 17:00 28.1 C 41 % 1005.9 hPa 0.0 l/m 3.3 km/h (1 Bft) W-SW 0.23 h 275 W/m 13.6 C 28.1 C 6.4 km/h (2 Bft)
25.05.2007 18:00 28.5 C 41 % 1005.4 hPa 0.0 l/m 2.9 km/h (1 Bft) W-SW 0.88 h 378 W/m 13.8 C 28.5 C 5.5 km/h (1 Bft)
25.05.2007 19:00 27.3 C 45 % 1005.3 hPa 0.0 l/m 2.4 km/h (1 Bft) W-SW 0.08 h 96 W/m 14.2 C 27.3 C 4.5 km/h (1 Bft)
25.05.2007 20:00 23.9 C 57 % 1005.2 hPa 0.0 l/m 4.3 km/h (1 Bft) O-SO 0.02 h 20 W/m 14.9 C 23.9 C 5.7 km/h (1 Bft)
25.05.2007 21:00 21.4 C 68 % 1005.3 hPa 0.0 l/m 2.2 km/h (1 Bft) O-SO 0.00 h 5 W/m 15.2 C 21.4 C 3.1 km/h (1 Bft)
25.05.2007 22:00 19.4 C 76 % 1005.8 hPa 0.0 l/m 3.9 km/h (1 Bft) O-SO 0.00 h 0 W/m 14.9 C 19.4 C 5.3 km/h (1 Bft)
25.05.2007 23:00 18.1 C 82 % 1005.7 hPa 0.0 l/m 2.0 km/h (1 Bft) O-SO 0.00 h 0 W/m 14.9 C 18.1 C 3.0 km/h (1 Bft)
26.05.2007 00:00 17.0 C 85 % 1005.9 hPa 0.0 l/m 3.3 km/h (1 Bft) O-SO 0.00 h 0 W/m 14.5 C 17.0 C 4.5 km/h (1 Bft)
26.05.2007 01:00 16.8 C 85 % 1005.8 hPa 0.0 l/m 2.4 km/h (1 Bft) O-SO 0.00 h 0 W/m 14.3 C 16.8 C 3.8 km/h (1 Bft)
26.05.2007 02:00 16.8 C 86 % 1005.4 hPa 0.0 l/m 0.5 km/h (0 Bft) SO 0.00 h 0 W/m 14.4 C 16.8 C 1.1 km/h (0 Bft)
26.05.2007 03:00 16.9 C 84 % 1005.1 hPa 0.0 l/m 2.6 km/h (1 Bft) O-SO 0.00 h 0 W/m 14.1 C 16.9 C 3.7 km/h (1 Bft)
26.05.2007 04:00 16.5 C 87 % 1004.8 hPa 0.0 l/m 0.4 km/h (0 Bft) O 0.00 h 0 W/m 14.4 C 16.5 C 1.0 km/h (0 Bft)
26.05.2007 05:00 16.1 C 89 % 1005.4 hPa 0.0 l/m 3.2 km/h (1 Bft) O-SO 0.00 h 8 W/m 14.3 C 16.1 C 4.8 km/h (1 Bft)
26.05.2007 06:00 16.2 C 90 % 1005.0 hPa 0.0 l/m 1.7 km/h (1 Bft) W 0.17 h 61 W/m 14.5 C 16.2 C 3.4 km/h (1 Bft)
26.05.2007 07:00 16.9 C 87 % 1004.6 hPa 0.0 l/m 0.4 km/h (0 Bft) W-NW 0.47 h 155 W/m 14.7 C 16.9 C 1.4 km/h (1 Bft)
26.05.2007 08:00 18.6 C 81 % 1004.3 hPa 0.0 l/m 0.5 km/h (0 Bft) W 0.67 h 303 W/m 15.3 C 18.6 C 1.7 km/h (1 Bft)
26.05.2007 09:00 21.4 C 68 % 1003.8 hPa 0.0 l/m 1.1 km/h (1 Bft) W 0.97 h 500 W/m 15.1 C 21.4 C 2.8 km/h (1 Bft)
26.05.2007 10:00 23.8 C 58 % 1003.3 hPa 0.0 l/m 4.2 km/h (1 Bft) O-SO 0.93 h 590 W/m 14.9 C 23.8 C 7.3 km/h (2 Bft)
26.05.2007 11:00 24.0 C 56 % 1002.9 hPa 0.0 l/m 3.8 km/h (1 Bft) O-SO 0.58 h 483 W/m 14.7 C 24.0 C 6.3 km/h (2 Bft)
26.05.2007 12:00 24.1 C 58 % 1002.8 hPa 0.0 l/m 2.6 km/h (1 Bft) O-SO 0.00 h 391 W/m 15.2 C 24.1 C 4.7 km/h (1 Bft)
26.05.2007 13:00 24.5 C 58 % 1002.7 hPa 0.0 l/m 4.4 km/h (1 Bft) O-SO 0.00 h 374 W/m 15.6 C 24.5 C 6.8 km/h (2 Bft)
26.05.2007 14:00 24.6 C 59 % 1002.4 hPa 0.0 l/m 4.8 km/h (1 Bft) SO 0.00 h 317 W/m 16.0 C 24.6 C 7.7 km/h (2 Bft)
26.05.2007 15:00 23.9 C 44 % 1001.7 hPa 0.0 l/m 6.0 km/h (2 Bft) S-SO 0.03 h 354 W/m 10.8 C 23.9 C 10.5 km/h (2 Bft)
26.05.2007 16:00 24.6 C 46 % 1000.9 hPa 0.0 l/m 2.8 km/h (1 Bft) SO 0.30 h 418 W/m 12.2 C 24.6 C 5.3 km/h (1 Bft)
26.05.2007 17:00 26.1 C 41 % 1000.0 hPa 0.0 l/m 5.0 km/h (1 Bft) SO 1.00 h 483 W/m 11.8 C 26.1 C 7.5 km/h (2 Bft)
26.05.2007 18:00 26.0 C 44 % 999.7 hPa 0.0 l/m 7.1 km/h (2 Bft) W-NW 0.77 h 309 W/m 12.8 C 26.0 C 10.5 km/h (2 Bft)
26.05.2007 19:00 23.3 C 54 % 1000.4 hPa 0.0 l/m 14.8 km/h (3 Bft) W 0.90 h 182 W/m 13.4 C 23.3 C 22.0 km/h (4 Bft)
26.05.2007 20:00 21.6 C 55 % 1000.0 hPa 0.0 l/m 7.4 km/h (2 Bft) SO 0.15 h 49 W/m 12.2 C 21.6 C 11.0 km/h (2 Bft)
26.05.2007 21:00 19.7 C 65 % 1000.3 hPa 0.0 l/m 4.2 km/h (1 Bft) O-SO 0.00 h 7 W/m 12.9 C 19.7 C 6.2 km/h (2 Bft)
26.05.2007 22:00 18.8 C 72 % 1000.7 hPa 0.0 l/m 1.2 km/h (1 Bft) O-SO 0.00 h 0 W/m 13.6 C 18.8 C 2.2 km/h (1 Bft)
26.05.2007 23:00 18.1 C 76 % 1000.5 hPa 0.0 l/m 2.1 km/h (1 Bft) O-SO 0.00 h 0 W/m 13.8 C 18.1 C 3.3 km/h (1 Bft)
27.05.2007 00:00 17.2 C 81 % 1000.7 hPa 0.0 l/m 1.9 km/h (1 Bft) O-SO 0.00 h 0 W/m 13.8 C 17.2 C 3.1 km/h (1 Bft)
27.05.2007 01:00 17.0 C 75 % 1000.6 hPa 0.0 l/m 1.4 km/h (1 Bft) S-SW 0.00 h 0 W/m 12.6 C 17.0 C 3.1 km/h (1 Bft)
27.05.2007 02:00 16.4 C 71 % 1000.1 hPa 0.0 l/m 1.1 km/h (1 Bft) SO 0.00 h 0 W/m 11.0 C 16.4 C 2.6 km/h (1 Bft)
27.05.2007 03:00 15.3 C 76 % 1000.1 hPa 0.0 l/m 1.0 km/h (0 Bft) S 0.00 h 0 W/m 11.2 C 15.3 C 2.5 km/h (1 Bft)
27.05.2007 04:00 14.7 C 79 % 999.8 hPa 0.0 l/m 2.8 km/h (1 Bft) S-SO 0.00 h 0 W/m 11.0 C 14.7 C 5.0 km/h (1 Bft)
27.05.2007 05:00 14.8 C 82 % 999.7 hPa 0.0 l/m 2.9 km/h (1 Bft) SO 0.07 h 10 W/m 11.7 C 14.8 C 5.0 km/h (1 Bft)
27.05.2007 06:00 15.0 C 84 % 999.8 hPa 0.0 l/m 2.4 km/h (1 Bft) O-SO 0.00 h 32 W/m 12.3 C 15.0 C 4.2 km/h (1 Bft)
27.05.2007 07:00 15.9 C 83 % 1000.2 hPa 0.0 l/m 1.1 km/h (0 Bft) S-SO 0.00 h 53 W/m 13.0 C 15.9 C 2.7 km/h (1 Bft)
27.05.2007 08:00 16.3 C 81 % 1000.5 hPa 0.2 l/m 2.3 km/h (1 Bft) S-SO 0.00 h 85 W/m 13.0 C 16.3 C 4.9 km/h (1 Bft)
27.05.2007 09:00 16.1 C 86 % 1000.9 hPa 0.4 l/m 2.6 km/h (1 Bft) S-SO 0.05 h 222 W/m 13.7 C 16.1 C 6.1 km/h (2 Bft)
27.05.2007 10:00 17.3 C 87 % 1001.0 hPa 0.2 l/m 3.3 km/h (1 Bft) W-SW 0.17 h 371 W/m 15.0 C 17.3 C 6.6 km/h (2 Bft)
27.05.2007 11:00 18.0 C 82 % 1000.8 hPa 0.0 l/m 2.6 km/h (1 Bft) S 0.22 h 397 W/m 14.9 C 18.0 C 5.3 km/h (1 Bft)
27.05.2007 12:00 16.1 C 82 % 1001.1 hPa 0.0 l/m 14.1 km/h (3 Bft) W 0.00 h 155 W/m 13.0 C 16.1 C 21.1 km/h (4 Bft)
27.05.2007 13:00 15.1 C 79 % 1001.8 hPa 0.0 l/m 14.3 km/h (3 Bft) W-NW 0.25 h 466 W/m 11.4 C 15.1 C 22.1 km/h (4 Bft)
27.05.2007 14:00 16.3 C 70 % 1001.2 hPa 0.0 l/m 14.3 km/h (3 Bft) W 0.68 h 636 W/m 10.7 C 16.3 C 21.7 km/h (4 Bft)
27.05.2007 15:00 18.6 C 62 % 1000.0 hPa 0.0 l/m 12.4 km/h (3 Bft) W 1.00 h 825 W/m 11.0 C 18.6 C 19.6 km/h (3 Bft)
27.05.2007 16:00 19.1 C 57 % 999.2 hPa 0.0 l/m 10.3 km/h (2 Bft) W 0.92 h 619 W/m 10.4 C 19.1 C 16.3 km/h (3 Bft)
27.05.2007 17:00 18.2 C 60 % 998.5 hPa 0.0 l/m 9.2 km/h (2 Bft) W 0.15 h 279 W/m 10.4 C 18.2 C 14.0 km/h (3 Bft)
27.05.2007 18:00 16.9 C 66 % 998.2 hPa 0.0 l/m 4.5 km/h (1 Bft) W-SW 0.00 h 76 W/m 10.6 C 16.9 C 7.4 km/h (2 Bft)
27.05.2007 19:00 16.6 C 70 % 997.9 hPa 0.0 l/m 1.7 km/h (1 Bft) O-SO 0.00 h 47 W/m 11.0 C 16.6 C 3.0 km/h (1 Bft)
27.05.2007 20:00 15.3 C 81 % 997.8 hPa 1.2 l/m 5.2 km/h (1 Bft) SO 0.00 h 13 W/m 12.1 C 15.3 C 7.2 km/h (2 Bft)
27.05.2007 21:00 13.8 C 93 % 998.2 hPa 5.4 l/m 2.6 km/h (1 Bft) SO 0.00 h 0 W/m 12.7 C 13.8 C 4.3 km/h (1 Bft)
27.05.2007 22:00 13.4 C 97 % 998.7 hPa 6.0 l/m 0.7 km/h (0 Bft) S 0.00 h 0 W/m 12.9 C 13.4 C 2.1 km/h (1 Bft)
27.05.2007 23:00 13.4 C 98 % 998.8 hPa 3.8 l/m 0.4 km/h (0 Bft) W-SW 0.00 h 0 W/m 13.1 C 13.4 C 1.5 km/h (1 Bft)
Min-Datum _ 27.05.07 25.05.07 27.05.07 - 21.05.07 - - - 26.05.07 27.05.07 21.05.07
_ Min-Zeit 23:59 16:18 20:00 - 00:49 - - - 15:27 23:59 01:57
Minimum _ 13.2 C 34 % 997.5 hPa - 0.0 km/h (0 Bft) - - - 9.1 C 13.2 C 0.0 km/h (0 Bft)
Max-Datum _ 24.05.07 22.05.07 22.05.07 27.05.07 27.05.07 - 21.05.07 27.05.07 21.05.07 24.05.07 27.05.07
_ Max-Zeit 16:54 06:56 09:30 22:00 13:27 - 05:55 13:49 13:50 16:54 12:30
Maximum _ 30.3 C 99 % 1020.2 hPa 6.0 l/m 30.4 km/h
W-NW (5 Bft)
- 0.02 h 1290 W/m 18.8 C 30.3 C 38.2 km/h
W-NW (5 Bft)
Durchschnitt _ 20.5 C 71 % 1010.4 hPa #22.6 l/m 2.9 km/h (1 Bft) O-SO #61:22 h 367 W/m 14.4 C 20.5 C 5.0 km/h (1 Bft)
© Kaiko 2007